Terminal Aerodrome Forecast
Issued by NWS

Home | Current Version | Previous Version | Text Only | Print | Product List | Glossary On
Versions: 1 2 3 4 5 6 7 8 9 10 11 12
000
FTUS43 KTOP 300500
TAFFOE
TAF
KFOE 300520Z 3006/0106 17007KT P6SM SCT070
     FM301500 18011G20KT P6SM BKN060 BKN100
     FM010000 16009KT P6SM VCTS BKN080CB=

USA.gov is the U.S. government's official web portal to all federal, state and local government web resources and services.